sensor_id;sensor_type;location;lat;lon;timestamp;temperature;humidity
37460;DHT22;23318;50.966;5.284;2023-03-01T00:00:40;2.20;98.00
37460;DHT22;23318;50.966;5.284;2023-03-01T00:03:06;2.10;98.20
37460;DHT22;23318;50.966;5.284;2023-03-01T00:05:32;2.10;98.40
37460;DHT22;23318;50.966;5.284;2023-03-01T00:07:58;2.10;98.50
37460;DHT22;23318;50.966;5.284;2023-03-01T00:10:24;2.10;98.70
37460;DHT22;23318;50.966;5.284;2023-03-01T00:12:49;2.20;98.80
37460;DHT22;23318;50.966;5.284;2023-03-01T00:15:15;2.10;98.80
37460;DHT22;23318;50.966;5.284;2023-03-01T00:17:41;2.10;98.90
37460;DHT22;23318;50.966;5.284;2023-03-01T00:20:07;2.10;98.80
37460;DHT22;23318;50.966;5.284;2023-03-01T00:22:36;2.00;98.90
37460;DHT22;23318;50.966;5.284;2023-03-01T00:25:03;1.90;99.20
37460;DHT22;23318;50.966;5.284;2023-03-01T00:27:28;1.90;99.10
37460;DHT22;23318;50.966;5.284;2023-03-01T00:29:54;1.90;98.90
37460;DHT22;23318;50.966;5.284;2023-03-01T00:32:20;1.80;98.90
37460;DHT22;23318;50.966;5.284;2023-03-01T00:34:45;1.70;99.20
37460;DHT22;23318;50.966;5.284;2023-03-01T00:37:20;1.70;99.40
37460;DHT22;23318;50.966;5.284;2023-03-01T00:39:46;1.70;99.40
37460;DHT22;23318;50.966;5.284;2023-03-01T00:42:11;1.70;99.30
37460;DHT22;23318;50.966;5.284;2023-03-01T00:44:37;1.60;99.40
37460;DHT22;23318;50.966;5.284;2023-03-01T00:47:03;1.50;99.60
37460;DHT22;23318;50.966;5.284;2023-03-01T00:49:29;1.40;99.80
37460;DHT22;23318;50.966;5.284;2023-03-01T00:51:54;1.50;99.90
37460;DHT22;23318;50.966;5.284;2023-03-01T00:54:20;1.50;99.90
37460;DHT22;23318;50.966;5.284;2023-03-01T00:56:45;1.40;99.90
37460;DHT22;23318;50.966;5.284;2023-03-01T00:59:11;1.50;99.80
37460;DHT22;23318;50.966;5.284;2023-03-01T01:01:37;1.50;99.90
37460;DHT22;23318;50.966;5.284;2023-03-01T01:04:06;1.40;99.90
37460;DHT22;23318;50.966;5.284;2023-03-01T01:06:38;1.40;99.80
37460;DHT22;23318;50.966;5.284;2023-03-01T01:09:06;1.40;99.90
37460;DHT22;23318;50.966;5.284;2023-03-01T01:11:33;1.20;99.90
37460;DHT22;23318;50.966;5.284;2023-03-01T01:14:00;1.20;99.90
37460;DHT22;23318;50.966;5.284;2023-03-01T01:16:27;1.20;99.90
37460;DHT22;23318;50.966;5.284;2023-03-01T01:18:53;1.30;99.90
37460;DHT22;23318;50.966;5.284;2023-03-01T01:21:22;1.40;99.90
37460;DHT22;23318;50.966;5.284;2023-03-01T01:23:48;1.30;99.90
37460;DHT22;23318;50.966;5.284;2023-03-01T01:26:17;1.30;99.90
37460;DHT22;23318;50.966;5.284;2023-03-01T01:28:43;1.40;99.90
37460;DHT22;23318;50.966;5.284;2023-03-01T01:31:09;1.30;99.90
37460;DHT22;23318;50.966;5.284;2023-03-01T01:33:35;1.20;99.90
37460;DHT22;23318;50.966;5.284;2023-03-01T01:36:01;1.20;99.90
37460;DHT22;23318;50.966;5.284;2023-03-01T01:38:26;1.20;99.90
37460;DHT22;23318;50.966;5.284;2023-03-01T01:40:52;1.20;99.90
37460;DHT22;23318;50.966;5.284;2023-03-01T01:43:22;1.10;99.90
37460;DHT22;23318;50.966;5.284;2023-03-01T01:45:48;1.10;99.90
37460;DHT22;23318;50.966;5.284;2023-03-01T01:48:21;1.10;99.90
37460;DHT22;23318;50.966;5.284;2023-03-01T01:50:55;1.10;99.90
37460;DHT22;23318;50.966;5.284;2023-03-01T01:53:22;1.10;99.90
37460;DHT22;23318;50.966;5.284;2023-03-01T01:55:54;1.00;99.90
37460;DHT22;23318;50.966;5.284;2023-03-01T01:58:24;1.10;99.90
37460;DHT22;23318;50.966;5.284;2023-03-01T02:00:52;1.10;99.90
37460;DHT22;23318;50.966;5.284;2023-03-01T02:03:22;1.10;99.90
37460;DHT22;23318;50.966;5.284;2023-03-01T02:06:41;1.00;99.90
37460;DHT22;23318;50.966;5.284;2023-03-01T02:08:48;1.00;99.90
37460;DHT22;23318;50.966;5.284;2023-03-01T02:11:15;1.00;99.90
37460;DHT22;23318;50.966;5.284;2023-03-01T02:13:41;1.00;99.90
37460;DHT22;23318;50.966;5.284;2023-03-01T02:16:13;1.10;99.90
37460;DHT22;23318;50.966;5.284;2023-03-01T02:18:40;1.00;99.90
37460;DHT22;23318;50.966;5.284;2023-03-01T02:23:33;1.00;99.90
37460;DHT22;23318;50.966;5.284;2023-03-01T02:26:11;0.90;99.90
37460;DHT22;23318;50.966;5.284;2023-03-01T02:28:42;1.00;99.90
37460;DHT22;23318;50.966;5.284;2023-03-01T02:31:09;0.80;99.90
37460;DHT22;23318;50.966;5.284;2023-03-01T02:33:55;0.80;99.90
37460;DHT22;23318;50.966;5.284;2023-03-01T02:36:29;0.80;99.90
37460;DHT22;23318;50.966;5.284;2023-03-01T02:38:58;0.80;99.90
37460;DHT22;23318;50.966;5.284;2023-03-01T02:41:26;0.80;99.90
37460;DHT22;23318;50.966;5.284;2023-03-01T02:43:53;0.90;99.90
37460;DHT22;23318;50.966;5.284;2023-03-01T02:46:22;0.90;99.90
37460;DHT22;23318;50.966;5.284;2023-03-01T02:48:53;0.80;99.90
37460;DHT22;23318;50.966;5.284;2023-03-01T02:54:31;0.60;99.90
37460;DHT22;23318;50.966;5.284;2023-03-01T02:56:59;0.60;99.90
37460;DHT22;23318;50.966;5.284;2023-03-01T02:59:30;0.60;99.90
37460;DHT22;23318;50.966;5.284;2023-03-01T03:01:56;0.60;99.90
37460;DHT22;23318;50.966;5.284;2023-03-01T03:04:22;0.60;99.90
37460;DHT22;23318;50.966;5.284;2023-03-01T03:06:50;0.50;99.90
37460;DHT22;23318;50.966;5.284;2023-03-01T03:09:16;0.60;99.90
37460;DHT22;23318;50.966;5.284;2023-03-01T03:11:43;0.60;99.90
37460;DHT22;23318;50.966;5.284;2023-03-01T03:14:13;0.70;99.90
37460;DHT22;23318;50.966;5.284;2023-03-01T03:16:47;0.70;99.90
37460;DHT22;23318;50.966;5.284;2023-03-01T03:19:14;0.70;99.90
37460;DHT22;23318;50.966;5.284;2023-03-01T03:21:40;0.60;99.90
37460;DHT22;23318;50.966;5.284;2023-03-01T03:24:05;0.60;99.90
37460;DHT22;23318;50.966;5.284;2023-03-01T03:26:31;0.60;99.90
37460;DHT22;23318;50.966;5.284;2023-03-01T03:28:57;0.50;99.90
37460;DHT22;23318;50.966;5.284;2023-03-01T03:31:23;0.50;99.90
37460;DHT22;23318;50.966;5.284;2023-03-01T03:33:48;0.60;99.90
37460;DHT22;23318;50.966;5.284;2023-03-01T03:36:23;0.50;99.90
37460;DHT22;23318;50.966;5.284;2023-03-01T03:38:49;0.50;99.90
37460;DHT22;23318;50.966;5.284;2023-03-01T03:41:16;0.40;99.90
37460;DHT22;23318;50.966;5.284;2023-03-01T03:43:42;0.40;99.90
37460;DHT22;23318;50.966;5.284;2023-03-01T03:46:09;0.20;99.90
37460;DHT22;23318;50.966;5.284;2023-03-01T03:48:43;0.20;99.90
37460;DHT22;23318;50.966;5.284;2023-03-01T03:51:18;0.20;99.90
37460;DHT22;23318;50.966;5.284;2023-03-01T03:53:45;0.20;99.90
37460;DHT22;23318;50.966;5.284;2023-03-01T03:56:11;0.20;99.90
37460;DHT22;23318;50.966;5.284;2023-03-01T03:58:37;0.10;99.90
37460;DHT22;23318;50.966;5.284;2023-03-01T04:01:03;0.10;99.90
37460;DHT22;23318;50.966;5.284;2023-03-01T04:03:30;0.00;99.90
37460;DHT22;23318;50.966;5.284;2023-03-01T04:05:58;0.10;99.90
37460;DHT22;23318;50.966;5.284;2023-03-01T04:08:24;0.10;99.90
37460;DHT22;23318;50.966;5.284;2023-03-01T04:10:52;0.10;99.90
37460;DHT22;23318;50.966;5.284;2023-03-01T04:13:21;0.10;99.90
37460;DHT22;23318;50.966;5.284;2023-03-01T04:15:51;0.10;99.90
37460;DHT22;23318;50.966;5.284;2023-03-01T04:18:18;0.00;99.90
37460;DHT22;23318;50.966;5.284;2023-03-01T04:20:45;-0.10;99.90
37460;DHT22;23318;50.966;5.284;2023-03-01T04:23:16;0.00;99.90
37460;DHT22;23318;50.966;5.284;2023-03-01T04:25:50;-0.10;99.90
37460;DHT22;23318;50.966;5.284;2023-03-01T04:28:24;-0.20;99.90
37460;DHT22;23318;50.966;5.284;2023-03-01T04:30:51;-0.10;99.90
37460;DHT22;23318;50.966;5.284;2023-03-01T04:33:17;-0.10;99.90
37460;DHT22;23318;50.966;5.284;2023-03-01T04:35:44;-0.10;99.90
37460;DHT22;23318;50.966;5.284;2023-03-01T04:38:10;-0.10;99.90
37460;DHT22;23318;50.966;5.284;2023-03-01T04:40:36;-0.30;99.90
37460;DHT22;23318;50.966;5.284;2023-03-01T04:43:02;-0.30;99.90
37460;DHT22;23318;50.966;5.284;2023-03-01T04:45:28;-0.40;99.90
37460;DHT22;23318;50.966;5.284;2023-03-01T04:47:54;-0.40;99.90
37460;DHT22;23318;50.966;5.284;2023-03-01T04:50:20;-0.30;99.90
37460;DHT22;23318;50.966;5.284;2023-03-01T04:52:47;-0.40;99.90
37460;DHT22;23318;50.966;5.284;2023-03-01T04:55:13;-0.20;99.90
37460;DHT22;23318;50.966;5.284;2023-03-01T04:57:39;-0.30;99.90
37460;DHT22;23318;50.966;5.284;2023-03-01T05:00:06;-0.20;99.90
37460;DHT22;23318;50.966;5.284;2023-03-01T05:02:46;-0.30;99.90
37460;DHT22;23318;50.966;5.284;2023-03-01T05:05:14;-0.10;99.90
37460;DHT22;23318;50.966;5.284;2023-03-01T05:07:39;0.00;99.90
37460;DHT22;23318;50.966;5.284;2023-03-01T05:10:05;0.00;99.90
37460;DHT22;23318;50.966;5.284;2023-03-01T05:12:31;0.00;99.90
37460;DHT22;23318;50.966;5.284;2023-03-01T05:14:57;0.00;99.90
37460;DHT22;23318;50.966;5.284;2023-03-01T05:17:23;-0.10;99.90
37460;DHT22;23318;50.966;5.284;2023-03-01T05:19:49;0.00;99.90
37460;DHT22;23318;50.966;5.284;2023-03-01T05:22:15;-0.10;99.90
37460;DHT22;23318;50.966;5.284;2023-03-01T05:24:41;0.00;99.90
37460;DHT22;23318;50.966;5.284;2023-03-01T05:27:07;0.00;99.90
37460;DHT22;23318;50.966;5.284;2023-03-01T05:29:33;0.00;99.90
37460;DHT22;23318;50.966;5.284;2023-03-01T05:32:01;0.00;99.90
37460;DHT22;23318;50.966;5.284;2023-03-01T05:34:30;-0.10;99.90
37460;DHT22;23318;50.966;5.284;2023-03-01T05:36:56;0.10;99.90
37460;DHT22;23318;50.966;5.284;2023-03-01T05:39:23;0.00;99.90
37460;DHT22;23318;50.966;5.284;2023-03-01T05:41:53;-0.10;99.90
37460;DHT22;23318;50.966;5.284;2023-03-01T05:44:20;-0.20;99.90
37460;DHT22;23318;50.966;5.284;2023-03-01T05:46:46;-0.30;99.90
37460;DHT22;23318;50.966;5.284;2023-03-01T05:49:13;-0.30;99.90
37460;DHT22;23318;50.966;5.284;2023-03-01T05:51:42;-0.30;99.90
37460;DHT22;23318;50.966;5.284;2023-03-01T05:54:09;-0.30;99.90
37460;DHT22;23318;50.966;5.284;2023-03-01T05:56:36;-0.30;99.90
37460;DHT22;23318;50.966;5.284;2023-03-01T05:59:03;-0.20;99.90
37460;DHT22;23318;50.966;5.284;2023-03-01T06:01:31;-0.40;99.90
37460;DHT22;23318;50.966;5.284;2023-03-01T06:03:56;-0.40;99.90
37460;DHT22;23318;50.966;5.284;2023-03-01T06:06:23;-0.50;99.90
37460;DHT22;23318;50.966;5.284;2023-03-01T06:08:49;-0.60;99.90
37460;DHT22;23318;50.966;5.284;2023-03-01T06:11:15;-0.70;99.90
37460;DHT22;23318;50.966;5.284;2023-03-01T06:13:45;-0.70;99.90
37460;DHT22;23318;50.966;5.284;2023-03-01T06:16:11;-0.80;99.90
37460;DHT22;23318;50.966;5.284;2023-03-01T06:18:37;-0.80;99.90
37460;DHT22;23318;50.966;5.284;2023-03-01T06:21:04;-0.80;99.90
37460;DHT22;23318;50.966;5.284;2023-03-01T06:23:30;-0.80;99.90
37460;DHT22;23318;50.966;5.284;2023-03-01T06:25:56;-1.10;99.90
37460;DHT22;23318;50.966;5.284;2023-03-01T06:28:22;-0.90;99.90
37460;DHT22;23318;50.966;5.284;2023-03-01T06:30:49;-0.90;99.90
37460;DHT22;23318;50.966;5.284;2023-03-01T06:33:15;-0.80;99.90
37460;DHT22;23318;50.966;5.284;2023-03-01T06:35:40;-0.90;99.90
37460;DHT22;23318;50.966;5.284;2023-03-01T06:38:07;-0.80;99.90
37460;DHT22;23318;50.966;5.284;2023-03-01T06:40:33;-0.80;99.90
37460;DHT22;23318;50.966;5.284;2023-03-01T06:43:01;-0.80;99.90
37460;DHT22;23318;50.966;5.284;2023-03-01T06:45:26;-0.80;99.90
37460;DHT22;23318;50.966;5.284;2023-03-01T06:47:52;-0.80;99.90
37460;DHT22;23318;50.966;5.284;2023-03-01T06:50:18;-0.80;99.90
37460;DHT22;23318;50.966;5.284;2023-03-01T06:52:44;-0.70;99.90
37460;DHT22;23318;50.966;5.284;2023-03-01T06:55:11;-0.80;99.90
37460;DHT22;23318;50.966;5.284;2023-03-01T06:57:37;-0.70;99.90
37460;DHT22;23318;50.966;5.284;2023-03-01T07:00:07;-0.70;99.90
37460;DHT22;23318;50.966;5.284;2023-03-01T07:02:33;-0.80;99.90
37460;DHT22;23318;50.966;5.284;2023-03-01T07:04:59;-0.70;99.90
37460;DHT22;23318;50.966;5.284;2023-03-01T07:07:25;-0.70;99.90
37460;DHT22;23318;50.966;5.284;2023-03-01T07:09:51;-0.60;99.90
37460;DHT22;23318;50.966;5.284;2023-03-01T07:12:16;-0.60;99.90
37460;DHT22;23318;50.966;5.284;2023-03-01T07:14:44;-0.60;99.90
37460;DHT22;23318;50.966;5.284;2023-03-01T07:17:09;-0.60;99.90
37460;DHT22;23318;50.966;5.284;2023-03-01T07:19:35;-0.50;99.90
37460;DHT22;23318;50.966;5.284;2023-03-01T07:22:01;-0.70;99.90
37460;DHT22;23318;50.966;5.284;2023-03-01T07:24:26;-0.70;99.90
37460;DHT22;23318;50.966;5.284;2023-03-01T07:26:52;-0.70;99.90
37460;DHT22;23318;50.966;5.284;2023-03-01T07:29:19;-0.70;99.90
37460;DHT22;23318;50.966;5.284;2023-03-01T07:31:45;-0.60;99.90
37460;DHT22;23318;50.966;5.284;2023-03-01T07:34:11;-0.50;99.90
37460;DHT22;23318;50.966;5.284;2023-03-01T07:36:37;-0.40;99.90
37460;DHT22;23318;50.966;5.284;2023-03-01T07:39:03;-0.40;99.90
37460;DHT22;23318;50.966;5.284;2023-03-01T07:41:29;-0.30;99.90
37460;DHT22;23318;50.966;5.284;2023-03-01T07:43:55;-0.20;99.90
37460;DHT22;23318;50.966;5.284;2023-03-01T07:46:21;-0.20;99.90
37460;DHT22;23318;50.966;5.284;2023-03-01T07:48:46;-0.20;99.90
37460;DHT22;23318;50.966;5.284;2023-03-01T07:51:12;-0.10;99.90
37460;DHT22;23318;50.966;5.284;2023-03-01T07:53:38;-0.10;99.90
37460;DHT22;23318;50.966;5.284;2023-03-01T07:56:10;0.00;99.90
37460;DHT22;23318;50.966;5.284;2023-03-01T07:58:37;0.10;99.90
37460;DHT22;23318;50.966;5.284;2023-03-01T08:01:04;0.20;99.90
37460;DHT22;23318;50.966;5.284;2023-03-01T08:03:30;0.20;99.90
37460;DHT22;23318;50.966;5.284;2023-03-01T08:05:58;0.30;99.90
37460;DHT22;23318;50.966;5.284;2023-03-01T08:08:24;0.40;99.90
37460;DHT22;23318;50.966;5.284;2023-03-01T08:10:50;0.50;99.90
37460;DHT22;23318;50.966;5.284;2023-03-01T08:13:15;0.60;99.90
37460;DHT22;23318;50.966;5.284;2023-03-01T08:15:41;0.60;99.90
37460;DHT22;23318;50.966;5.284;2023-03-01T08:18:06;0.70;99.90
37460;DHT22;23318;50.966;5.284;2023-03-01T08:20:32;0.80;99.90
37460;DHT22;23318;50.966;5.284;2023-03-01T08:22:58;0.90;99.90
37460;DHT22;23318;50.966;5.284;2023-03-01T08:25:23;1.00;99.90
37460;DHT22;23318;50.966;5.284;2023-03-01T08:27:49;1.10;99.90
37460;DHT22;23318;50.966;5.284;2023-03-01T08:30:15;1.20;99.90
37460;DHT22;23318;50.966;5.284;2023-03-01T08:32:41;1.20;99.90
37460;DHT22;23318;50.966;5.284;2023-03-01T08:35:06;1.30;99.90
37460;DHT22;23318;50.966;5.284;2023-03-01T08:37:32;1.40;99.90
37460;DHT22;23318;50.966;5.284;2023-03-01T08:39:59;1.50;99.90
37460;DHT22;23318;50.966;5.284;2023-03-01T08:42:26;1.50;99.90
37460;DHT22;23318;50.966;5.284;2023-03-01T08:44:51;1.60;99.90
37460;DHT22;23318;50.966;5.284;2023-03-01T08:47:17;1.60;99.90
37460;DHT22;23318;50.966;5.284;2023-03-01T08:49:43;1.70;99.90
37460;DHT22;23318;50.966;5.284;2023-03-01T08:52:08;1.90;99.90
37460;DHT22;23318;50.966;5.284;2023-03-01T08:54:34;2.00;99.90
37460;DHT22;23318;50.966;5.284;2023-03-01T08:57:02;1.90;99.90
37460;DHT22;23318;50.966;5.284;2023-03-01T08:59:27;1.90;99.90
37460;DHT22;23318;50.966;5.284;2023-03-01T09:01:55;2.00;99.90
37460;DHT22;23318;50.966;5.284;2023-03-01T09:04:21;2.20;99.90
37460;DHT22;23318;50.966;5.284;2023-03-01T09:06:47;2.30;99.90
37460;DHT22;23318;50.966;5.284;2023-03-01T09:09:17;2.60;99.90
37460;DHT22;23318;50.966;5.284;2023-03-01T09:11:44;2.60;99.90
37460;DHT22;23318;50.966;5.284;2023-03-01T09:14:12;2.70;99.90
37460;DHT22;23318;50.966;5.284;2023-03-01T09:16:38;2.80;99.90
37460;DHT22;23318;50.966;5.284;2023-03-01T09:19:05;2.80;99.80
37460;DHT22;23318;50.966;5.284;2023-03-01T09:21:31;2.90;99.50
37460;DHT22;23318;50.966;5.284;2023-03-01T09:23:57;2.90;99.60
37460;DHT22;23318;50.966;5.284;2023-03-01T09:26:24;2.90;99.40
37460;DHT22;23318;50.966;5.284;2023-03-01T09:28:51;3.10;99.70
37460;DHT22;23318;50.966;5.284;2023-03-01T09:31:19;3.20;99.20
37460;DHT22;23318;50.966;5.284;2023-03-01T09:33:50;3.40;99.00
37460;DHT22;23318;50.966;5.284;2023-03-01T09:36:19;3.30;98.80
37460;DHT22;23318;50.966;5.284;2023-03-01T09:38:47;3.30;98.80
37460;DHT22;23318;50.966;5.284;2023-03-01T09:44:23;3.30;98.80
37460;DHT22;23318;50.966;5.284;2023-03-01T09:46:47;3.40;98.90
37460;DHT22;23318;50.966;5.284;2023-03-01T09:49:22;3.50;98.60
37460;DHT22;23318;50.966;5.284;2023-03-01T09:54:49;3.70;98.60
37460;DHT22;23318;50.966;5.284;2023-03-01T09:57:26;3.90;98.50
37460;DHT22;23318;50.966;5.284;2023-03-01T10:06:02;4.30;97.90
37460;DHT22;23318;50.966;5.284;2023-03-01T10:08:58;4.30;98.00
37460;DHT22;23318;50.966;5.284;2023-03-01T10:11:31;4.30;97.60
37460;DHT22;23318;50.966;5.284;2023-03-01T10:14:15;4.20;97.60
37460;DHT22;23318;50.966;5.284;2023-03-01T10:17:02;4.20;97.70
37460;DHT22;23318;50.966;5.284;2023-03-01T10:19:40;4.30;97.70
37460;DHT22;23318;50.966;5.284;2023-03-01T10:22:22;4.40;97.40
37460;DHT22;23318;50.966;5.284;2023-03-01T10:24:51;4.40;97.40
37460;DHT22;23318;50.966;5.284;2023-03-01T10:27:33;4.60;97.40
37460;DHT22;23318;50.966;5.284;2023-03-01T10:32:31;5.00;97.20
37460;DHT22;23318;50.966;5.284;2023-03-01T10:34:57;5.10;96.70
37460;DHT22;23318;50.966;5.284;2023-03-01T10:37:23;5.60;96.40
37460;DHT22;23318;50.966;5.284;2023-03-01T10:40:09;6.30;95.50
37460;DHT22;23318;50.966;5.284;2023-03-01T10:42:38;7.10;94.80
37460;DHT22;23318;50.966;5.284;2023-03-01T10:48:08;8.30;93.50
37460;DHT22;23318;50.966;5.284;2023-03-01T10:50:37;8.80;93.10
37460;DHT22;23318;50.966;5.284;2023-03-01T10:53:05;8.80;92.80
37460;DHT22;23318;50.966;5.284;2023-03-01T10:55:41;8.80;92.50
37460;DHT22;23318;50.966;5.284;2023-03-01T10:58:20;9.20;92.20
37460;DHT22;23318;50.966;5.284;2023-03-01T11:00:48;9.50;92.00
37460;DHT22;23318;50.966;5.284;2023-03-01T11:03:18;10.10;91.40
37460;DHT22;23318;50.966;5.284;2023-03-01T11:05:53;10.40;90.60
37460;DHT22;23318;50.966;5.284;2023-03-01T11:08:39;9.60;91.10
37460;DHT22;23318;50.966;5.284;2023-03-01T11:13:57;10.90;90.30
37460;DHT22;23318;50.966;5.284;2023-03-01T11:16:37;10.90;90.10
37460;DHT22;23318;50.966;5.284;2023-03-01T11:22:03;12.00;87.60
37460;DHT22;23318;50.966;5.284;2023-03-01T11:24:49;11.50;87.30
37460;DHT22;23318;50.966;5.284;2023-03-01T11:27:25;11.20;86.50
37460;DHT22;23318;50.966;5.284;2023-03-01T11:35:54;11.50;85.50
37460;DHT22;23318;50.966;5.284;2023-03-01T11:38:26;11.50;85.10
37460;DHT22;23318;50.966;5.284;2023-03-01T11:41:31;11.60;84.60
37460;DHT22;23318;50.966;5.284;2023-03-01T11:44:03;12.20;84.30
37460;DHT22;23318;50.966;5.284;2023-03-01T11:46:36;13.40;82.90
37460;DHT22;23318;50.966;5.284;2023-03-01T11:54:51;12.10;81.00
37460;DHT22;23318;50.966;5.284;2023-03-01T11:57:57;11.90;81.50
37460;DHT22;23318;50.966;5.284;2023-03-01T12:09:06;13.90;78.70
37460;DHT22;23318;50.966;5.284;2023-03-01T12:14:28;15.20;75.60
37460;DHT22;23318;50.966;5.284;2023-03-01T12:17:15;16.50;74.10
37460;DHT22;23318;50.966;5.284;2023-03-01T12:23:07;14.90;71.80
37460;DHT22;23318;50.966;5.284;2023-03-01T12:25:55;14.80;72.90
37460;DHT22;23318;50.966;5.284;2023-03-01T12:33:53;14.60;72.30
37460;DHT22;23318;50.966;5.284;2023-03-01T12:42:48;14.90;70.70
37460;DHT22;23318;50.966;5.284;2023-03-01T12:50:55;16.30;69.70
37460;DHT22;23318;50.966;5.284;2023-03-01T12:53:39;17.90;68.70
37460;DHT22;23318;50.966;5.284;2023-03-01T12:56:07;17.30;67.00
37460;DHT22;23318;50.966;5.284;2023-03-01T13:04:06;15.80;67.50
37460;DHT22;23318;50.966;5.284;2023-03-01T13:06:47;15.30;68.00
37460;DHT22;23318;50.966;5.284;2023-03-01T13:09:26;14.80;68.50
37460;DHT22;23318;50.966;5.284;2023-03-01T13:11:55;14.70;68.60
37460;DHT22;23318;50.966;5.284;2023-03-01T13:16:49;14.90;68.40
37460;DHT22;23318;50.966;5.284;2023-03-01T13:19:24;15.20;67.80
37460;DHT22;23318;50.966;5.284;2023-03-01T13:21:52;15.40;67.10
37460;DHT22;23318;50.966;5.284;2023-03-01T13:29:45;15.60;68.10
37460;DHT22;23318;50.966;5.284;2023-03-01T13:32:36;15.40;67.10
37460;DHT22;23318;50.966;5.284;2023-03-01T13:37:44;15.60;66.50
37460;DHT22;23318;50.966;5.284;2023-03-01T13:42:45;16.60;66.60
37460;DHT22;23318;50.966;5.284;2023-03-01T13:47:49;15.60;66.80
37460;DHT22;23318;50.966;5.284;2023-03-01T13:50:27;16.30;67.00
37460;DHT22;23318;50.966;5.284;2023-03-01T13:53:03;17.00;66.10
37460;DHT22;23318;50.966;5.284;2023-03-01T13:55:41;16.20;66.10
37460;DHT22;23318;50.966;5.284;2023-03-01T13:58:26;16.50;65.40
37460;DHT22;23318;50.966;5.284;2023-03-01T14:03:22;16.00;66.90
37460;DHT22;23318;50.966;5.284;2023-03-01T14:08:26;16.50;66.80
37460;DHT22;23318;50.966;5.284;2023-03-01T14:16:50;15.70;64.80
37460;DHT22;23318;50.966;5.284;2023-03-01T14:19:23;15.60;65.60
37460;DHT22;23318;50.966;5.284;2023-03-01T14:24:48;16.50;65.80
37460;DHT22;23318;50.966;5.284;2023-03-01T14:27:15;16.20;65.50
37460;DHT22;23318;50.966;5.284;2023-03-01T14:29:41;16.40;65.30
37460;DHT22;23318;50.966;5.284;2023-03-01T14:32:21;15.60;65.30
37460;DHT22;23318;50.966;5.284;2023-03-01T14:34:50;15.20;65.60
37460;DHT22;23318;50.966;5.284;2023-03-01T14:37:22;14.80;66.10
37460;DHT22;23318;50.966;5.284;2023-03-01T14:39:50;14.40;66.00
37460;DHT22;23318;50.966;5.284;2023-03-01T14:42:17;14.30;66.50
37460;DHT22;23318;50.966;5.284;2023-03-01T14:44:47;14.60;65.90
37460;DHT22;23318;50.966;5.284;2023-03-01T14:47:19;14.50;66.40
37460;DHT22;23318;50.966;5.284;2023-03-01T14:49:45;15.10;66.10
37460;DHT22;23318;50.966;5.284;2023-03-01T14:52:22;15.60;65.90
37460;DHT22;23318;50.966;5.284;2023-03-01T14:54:52;16.30;65.40
37460;DHT22;23318;50.966;5.284;2023-03-01T14:57:21;17.00;65.20
37460;DHT22;23318;50.966;5.284;2023-03-01T14:59:51;16.40;65.10
37460;DHT22;23318;50.966;5.284;2023-03-01T15:02:26;15.60;64.90
37460;DHT22;23318;50.966;5.284;2023-03-01T15:04:55;15.60;65.40
37460;DHT22;23318;50.966;5.284;2023-03-01T15:07:30;15.60;64.80
37460;DHT22;23318;50.966;5.284;2023-03-01T15:09:57;15.70;64.80
37460;DHT22;23318;50.966;5.284;2023-03-01T15:12:38;14.90;64.20
37460;DHT22;23318;50.966;5.284;2023-03-01T15:15:30;14.70;64.60
37460;DHT22;23318;50.966;5.284;2023-03-01T15:18:03;14.80;64.60
37460;DHT22;23318;50.966;5.284;2023-03-01T15:20:30;15.00;64.60
37460;DHT22;23318;50.966;5.284;2023-03-01T15:23:01;14.90;64.90
37460;DHT22;23318;50.966;5.284;2023-03-01T15:25:29;14.60;65.90
37460;DHT22;23318;50.966;5.284;2023-03-01T15:27:57;14.50;65.60
37460;DHT22;23318;50.966;5.284;2023-03-01T15:30:27;14.60;65.40
37460;DHT22;23318;50.966;5.284;2023-03-01T15:35:50;15.00;65.40
37460;DHT22;23318;50.966;5.284;2023-03-01T15:38:36;15.40;65.00
37460;DHT22;23318;50.966;5.284;2023-03-01T15:43:52;16.20;65.00
37460;DHT22;23318;50.966;5.284;2023-03-01T15:46:31;16.10;64.90
37460;DHT22;23318;50.966;5.284;2023-03-01T15:49:00;15.30;64.80
37460;DHT22;23318;50.966;5.284;2023-03-01T15:51:37;15.10;64.30
37460;DHT22;23318;50.966;5.284;2023-03-01T15:54:16;14.40;64.60
37460;DHT22;23318;50.966;5.284;2023-03-01T15:56:43;14.40;64.90
37460;DHT22;23318;50.966;5.284;2023-03-01T15:59:11;14.20;65.20
37460;DHT22;23318;50.966;5.284;2023-03-01T16:01:38;14.60;65.20
37460;DHT22;23318;50.966;5.284;2023-03-01T16:04:04;14.80;65.30
37460;DHT22;23318;50.966;5.284;2023-03-01T16:06:30;14.20;65.10
37460;DHT22;23318;50.966;5.284;2023-03-01T16:08:56;13.50;65.80
37460;DHT22;23318;50.966;5.284;2023-03-01T16:11:22;13.60;66.10
37460;DHT22;23318;50.966;5.284;2023-03-01T16:13:48;13.80;65.80
37460;DHT22;23318;50.966;5.284;2023-03-01T16:16:15;14.40;66.00
37460;DHT22;23318;50.966;5.284;2023-03-01T16:18:46;14.40;65.80
37460;DHT22;23318;50.966;5.284;2023-03-01T16:21:20;13.80;65.30
37460;DHT22;23318;50.966;5.284;2023-03-01T16:23:46;13.10;66.00
37460;DHT22;23318;50.966;5.284;2023-03-01T16:26:12;12.80;66.30
37460;DHT22;23318;50.966;5.284;2023-03-01T16:28:39;12.40;66.60
37460;DHT22;23318;50.966;5.284;2023-03-01T16:31:05;12.60;66.90
37460;DHT22;23318;50.966;5.284;2023-03-01T16:33:31;12.80;67.20
37460;DHT22;23318;50.966;5.284;2023-03-01T16:35:57;12.90;66.60
37460;DHT22;23318;50.966;5.284;2023-03-01T16:38:25;12.30;67.10
37460;DHT22;23318;50.966;5.284;2023-03-01T16:40:52;12.50;67.60
37460;DHT22;23318;50.966;5.284;2023-03-01T16:43:18;12.70;68.10
37460;DHT22;23318;50.966;5.284;2023-03-01T16:45:43;12.90;67.20
37460;DHT22;23318;50.966;5.284;2023-03-01T16:48:11;12.60;67.50
37460;DHT22;23318;50.966;5.284;2023-03-01T16:50:37;12.10;67.80
37460;DHT22;23318;50.966;5.284;2023-03-01T16:53:03;11.40;68.60
37460;DHT22;23318;50.966;5.284;2023-03-01T16:55:28;11.20;68.50
37460;DHT22;23318;50.966;5.284;2023-03-01T16:57:54;10.60;69.50
37460;DHT22;23318;50.966;5.284;2023-03-01T17:00:20;10.20;70.10
37460;DHT22;23318;50.966;5.284;2023-03-01T17:02:46;10.30;70.80
37460;DHT22;23318;50.966;5.284;2023-03-01T17:05:12;10.20;71.10
37460;DHT22;23318;50.966;5.284;2023-03-01T17:07:38;10.10;70.90
37460;DHT22;23318;50.966;5.284;2023-03-01T17:10:06;10.00;72.10
37460;DHT22;23318;50.966;5.284;2023-03-01T17:12:34;9.90;71.70
37460;DHT22;23318;50.966;5.284;2023-03-01T17:15:00;9.70;72.30
37460;DHT22;23318;50.966;5.284;2023-03-01T17:17:26;9.50;72.80
37460;DHT22;23318;50.966;5.284;2023-03-01T17:19:52;9.30;72.90
37460;DHT22;23318;50.966;5.284;2023-03-01T17:22:18;9.00;73.40
37460;DHT22;23318;50.966;5.284;2023-03-01T17:24:45;8.80;74.00
37460;DHT22;23318;50.966;5.284;2023-03-01T17:27:12;8.70;74.00
37460;DHT22;23318;50.966;5.284;2023-03-01T17:29:38;8.60;74.50
37460;DHT22;23318;50.966;5.284;2023-03-01T17:32:05;8.60;76.00
37460;DHT22;23318;50.966;5.284;2023-03-01T17:34:31;8.50;75.50
37460;DHT22;23318;50.966;5.284;2023-03-01T17:36:57;8.50;75.60
37460;DHT22;23318;50.966;5.284;2023-03-01T17:39:23;8.50;75.50
37460;DHT22;23318;50.966;5.284;2023-03-01T17:41:54;8.50;76.00